createdAt,value
2023-03-14T00:04:02.619Z,98931.91
2023-03-14T00:08:55.718Z,98913.13
2023-03-14T00:13:52.095Z,98927.84
2023-03-14T00:18:44.741Z,98919.00
2023-03-14T00:23:37.329Z,98909.91
2023-03-14T00:28:30.952Z,98910.88
2023-03-14T00:33:23.753Z,98919.72
2023-03-14T00:38:18.530Z,98946.09
2023-03-14T00:43:11.882Z,98939.88
2023-03-14T00:48:18.518Z,98953.91
2023-03-14T00:53:13.604Z,98951.38
2023-03-14T00:58:11.269Z,98947.03
2023-03-14T01:03:02.795Z,98942.56
2023-03-14T01:07:54.812Z,98942.31
2023-03-14T01:12:48.232Z,98942.56
2023-03-14T01:17:41.359Z,98957.06
2023-03-14T01:22:33.941Z,98954.94
2023-03-14T01:27:27.728Z,98953.22
2023-03-14T01:32:19.695Z,98944.06
2023-03-14T01:37:20.610Z,98941.91
2023-03-14T01:42:11.665Z,98932.22
2023-03-14T01:47:05.959Z,98927.22
2023-03-14T01:52:00.690Z,98884.88
2023-03-14T01:57:02.887Z,98923.09
2023-03-14T02:02:01.181Z,98916.84
2023-03-14T02:07:01.302Z,98896.84
2023-03-14T02:12:08.469Z,98910.06
2023-03-14T02:17:13.379Z,98892.53
2023-03-14T02:22:47.897Z,98887.97
2023-03-14T02:27:42.932Z,98887.63
2023-03-14T02:32:39.533Z,98880.53
2023-03-14T02:37:45.119Z,98872.81
2023-03-14T02:42:39.547Z,98859.09
2023-03-14T02:47:41.008Z,98865.94
2023-03-14T02:52:38.269Z,98858.03
2023-03-14T02:57:34.764Z,98854.59
2023-03-14T03:02:29.529Z,98850.72
2023-03-14T03:07:22.982Z,98828.97
2023-03-14T03:12:13.394Z,98844.84
2023-03-14T03:17:08.926Z,98846.44
2023-03-14T03:22:08.029Z,98854.91
2023-03-14T03:27:03.511Z,98845.44
2023-03-14T03:32:00.363Z,98836.91
2023-03-14T03:37:00.841Z,98837.06
2023-03-14T03:41:57.334Z,98820.81
2023-03-14T03:46:53.510Z,98845.44
2023-03-14T03:51:45.379Z,98837.88
2023-03-14T03:56:41.737Z,98845.16
2023-03-14T04:01:35.197Z,98850.34
2023-03-14T04:06:33.804Z,98845.06
2023-03-14T04:11:28.809Z,98833.25
2023-03-14T04:16:47.059Z,98841.03
2023-03-14T04:21:48.591Z,98824.94
2023-03-14T04:26:44.729Z,98838.50
2023-03-14T04:31:36.609Z,98822.97
2023-03-14T04:36:30.931Z,98834.88
2023-03-14T04:41:33.609Z,98820.34
2023-03-14T04:46:31.710Z,98815.16
2023-03-14T04:51:30.225Z,98821.13
2023-03-14T04:56:20.576Z,98793.84
2023-03-14T05:01:18.493Z,98820.16
2023-03-14T05:06:36.487Z,98808.00
2023-03-14T05:11:50.832Z,98805.41
2023-03-14T05:17:17.818Z,98798.75
2023-03-14T05:22:31.348Z,98798.94
2023-03-14T05:27:47.846Z,98761.28
2023-03-14T05:33:12.836Z,98806.13
2023-03-14T05:38:26.665Z,98784.91
2023-03-14T05:43:49.211Z,98803.28
2023-03-14T05:49:07.315Z,98801.53
2023-03-14T05:54:14.455Z,98820.56
2023-03-14T05:59:46.626Z,98806.03
2023-03-14T06:05:20.425Z,98847.72
2023-03-14T06:10:23.501Z,98882.88
2023-03-14T06:15:21.478Z,98907.03
2023-03-14T06:20:25.251Z,98935.50
2023-03-14T06:25:26.738Z,98950.16
2023-03-14T06:30:32.128Z,98918.03
2023-03-14T06:35:32.157Z,98949.13
2023-03-14T06:40:27.509Z,98894.25
2023-03-14T06:45:44.546Z,98988.50
2023-03-14T06:50:41.332Z,99007.75
2023-03-14T06:55:37.882Z,99019.84
2023-03-14T07:00:30.076Z,99041.84
2023-03-14T07:05:23.455Z,99068.59
2023-03-14T07:10:18.315Z,99080.94
2023-03-14T07:20:28.169Z,99125.38
2023-03-14T07:25:22.312Z,99145.44
2023-03-14T07:30:32.347Z,99157.28
2023-03-14T07:35:28.725Z,99168.47
2023-03-14T07:40:23.686Z,99191.50
2023-03-14T07:45:19.593Z,99192.06
2023-03-14T07:50:16.179Z,99225.66
2023-03-14T07:55:18.069Z,99227.44
2023-03-14T08:00:14.856Z,99245.53
2023-03-14T08:05:10.586Z,99263.53
2023-03-14T08:10:01.760Z,99273.88
2023-03-14T08:14:55.770Z,99299.81
2023-03-14T08:19:58.479Z,99318.16
2023-03-14T08:24:49.200Z,99359.09
2023-03-14T08:29:43.071Z,99377.03
2023-03-14T08:34:43.337Z,99402.59
2023-03-14T08:39:39.987Z,99431.22
2023-03-14T08:44:32.917Z,99461.47
2023-03-14T08:49:24.111Z,99469.41
2023-03-14T08:54:19.349Z,99501.00
2023-03-14T08:59:13.314Z,99520.94
2023-03-14T09:04:06.033Z,99543.69
2023-03-14T09:09:01.378Z,99557.63
2023-03-14T09:14:04.817Z,99575.25
2023-03-14T09:19:04.398Z,99604.47
2023-03-14T09:24:06.676Z,99623.28
2023-03-14T09:28:58.611Z,99643.00
2023-03-14T09:33:52.351Z,99652.72
2023-03-14T09:38:45.829Z,99678.50
2023-03-14T09:43:44.508Z,99700.81
2023-03-14T09:48:42.206Z,99721.38
2023-03-14T09:53:47.293Z,99754.56
2023-03-14T09:58:55.438Z,99755.75
2023-03-14T10:03:51.635Z,99770.66
2023-03-14T10:08:48.340Z,99802.63
2023-03-14T10:13:54.380Z,99818.59
2023-03-14T10:18:57.161Z,99846.22
2023-03-14T10:23:51.947Z,99874.13
2023-03-14T10:28:49.552Z,99888.72
2023-03-14T10:34:07.311Z,99900.72
2023-03-14T10:39:02.147Z,99919.56
2023-03-14T10:43:56.875Z,99943.72
2023-03-14T10:48:47.651Z,99958.16
2023-03-14T10:53:45.560Z,99976.88
2023-03-14T10:58:43.934Z,99951.44
2023-03-14T11:03:44.745Z,100025.28
2023-03-14T11:08:48.550Z,100040.81
2023-03-14T11:13:53.719Z,100051.03
2023-03-14T11:19:20.609Z,100072.41
2023-03-14T11:24:30.049Z,100092.13
2023-03-14T11:29:31.311Z,100096.69
2023-03-14T11:34:33.063Z,100113.94
2023-03-14T11:39:45.852Z,100125.25
2023-03-14T11:44:44.084Z,100120.56
2023-03-14T11:49:43.241Z,100135.13
2023-03-14T11:54:49.954Z,100165.41
2023-03-14T11:59:52.148Z,100161.91
2023-03-14T12:04:58.308Z,100172.72
2023-03-14T12:09:54.212Z,100195.69
2023-03-14T12:14:57.302Z,100206.91
2023-03-14T12:19:53.755Z,100222.06
2023-03-14T12:24:57.540Z,100229.19
2023-03-14T12:30:08.990Z,100228.34
2023-03-14T12:35:01.134Z,100243.47
2023-03-14T12:40:20.729Z,100238.00
2023-03-14T12:45:36.838Z,100274.25
2023-03-14T12:50:41.203Z,100274.88
2023-03-14T12:55:44.166Z,100284.47
2023-03-14T13:00:42.282Z,100301.94
2023-03-14T13:05:35.434Z,100309.84
2023-03-14T13:10:38.302Z,100339.09
2023-03-14T13:15:43.220Z,100357.44
2023-03-14T13:20:38.711Z,100366.97
2023-03-14T13:25:41.429Z,100371.41
2023-03-14T13:30:46.735Z,100393.09
2023-03-14T13:35:46.627Z,100397.50
2023-03-14T13:40:45.321Z,100399.34
2023-03-14T13:45:54.014Z,100429.59
2023-03-14T13:51:03.713Z,100440.84
2023-03-14T13:55:56.507Z,100435.66
2023-03-14T14:01:00.401Z,100459.84
2023-03-14T14:05:51.312Z,100481.44
2023-03-14T14:10:45.329Z,100490.97
2023-03-14T14:15:42.321Z,100514.28
2023-03-14T14:20:42.276Z,100510.91
2023-03-14T14:25:37.477Z,100531.63
2023-03-14T14:30:39.612Z,100551.47
2023-03-14T14:35:42.324Z,100563.59
2023-03-14T14:40:37.652Z,100570.50
2023-03-14T14:45:35.537Z,100582.59
2023-03-14T14:51:02.891Z,100593.78
2023-03-14T14:55:59.036Z,100604.13
2023-03-14T15:01:01.833Z,100598.97
2023-03-14T15:05:57.965Z,100636.03
2023-03-14T15:10:49.775Z,100642.91
2023-03-14T15:15:43.869Z,100658.44
2023-03-14T15:20:44.439Z,100666.19
2023-03-14T15:25:56.403Z,100673.09
2023-03-14T15:30:51.009Z,100681.66
2023-03-14T15:35:49.827Z,100700.63
2023-03-14T15:40:44.809Z,100697.13
2023-03-14T15:45:35.513Z,100708.28
2023-03-14T15:50:33.386Z,100721.19
2023-03-14T15:55:29.756Z,100730.59
2023-03-14T16:00:32.196Z,100738.34
2023-03-14T16:05:37.552Z,100747.81
2023-03-14T16:10:30.430Z,100761.56
2023-03-14T16:15:25.223Z,100778.78
2023-03-14T16:20:20.881Z,100773.59
2023-03-14T16:25:14.300Z,100791.75
2023-03-14T16:30:08.384Z,100777.06
2023-03-14T16:35:11.337Z,100800.38
2023-03-14T16:40:13.146Z,100794.25
2023-03-14T16:45:10.923Z,100801.97
2023-03-14T16:50:05.590Z,100826.94
2023-03-14T16:54:56.973Z,100822.59
2023-03-14T17:00:02.023Z,100844.16
2023-03-14T17:04:57.317Z,100843.28
2023-03-14T17:09:54.013Z,100841.47
2023-03-14T17:14:56.841Z,100861.28
2023-03-14T17:19:52.426Z,100867.16
2023-03-14T17:24:43.365Z,100860.97
2023-03-14T17:29:36.001Z,100883.31
2023-03-14T17:34:30.510Z,100896.13
2023-03-14T17:39:22.968Z,100879.53
2023-03-14T17:44:16.589Z,100912.19
2023-03-14T17:49:24.562Z,100930.09
2023-03-14T17:54:20.095Z,100932.53
2023-03-14T17:59:15.646Z,100941.84
2023-03-14T18:04:14.382Z,100945.16
2023-03-14T18:09:06.299Z,100926.81
2023-03-14T18:13:56.486Z,100964.84
2023-03-14T18:18:49.453Z,100975.22
2023-03-14T18:23:55.046Z,100980.44
2023-03-14T18:28:46.362Z,100976.16
2023-03-14T18:33:38.544Z,100994.94
2023-03-14T18:38:32.708Z,100999.16
2023-03-14T18:43:29.349Z,101005.88
2023-03-14T18:48:27.637Z,101001.44
2023-03-14T18:53:18.156Z,101010.88
2023-03-14T18:58:09.658Z,101016.75
2023-03-14T19:03:09.469Z,101023.44
2023-03-14T19:08:01.258Z,101025.91
2023-03-14T19:12:52.535Z,101026.59
2023-03-14T19:17:45.175Z,101017.94
2023-03-14T19:22:37.454Z,101017.91
2023-03-14T19:27:32.617Z,101024.75
2023-03-14T19:32:24.497Z,101018.53
2023-03-14T19:37:23.535Z,101017.56
2023-03-14T19:42:22.673Z,101025.16
2023-03-14T19:47:14.487Z,101021.66
2023-03-14T19:52:07.754Z,101024.91
2023-03-14T19:56:57.417Z,101035.13
2023-03-14T20:01:53.136Z,101034.47
2023-03-14T20:06:51.024Z,101034.47
2023-03-14T20:11:47.179Z,101056.91
2023-03-14T20:16:42.096Z,101057.84
2023-03-14T20:21:37.095Z,101065.66
2023-03-14T20:26:29.232Z,101068.22
2023-03-14T20:31:27.467Z,101063.09
2023-03-14T20:36:28.319Z,101068.47
2023-03-14T20:41:24.217Z,101062.31
2023-03-14T20:46:17.782Z,101079.56
2023-03-14T20:51:14.969Z,101085.31
2023-03-14T20:56:08.565Z,101098.28
2023-03-14T21:01:07.581Z,101100.78
2023-03-14T21:06:02.080Z,101089.69
2023-03-14T21:11:03.335Z,101091.56
2023-03-14T21:15:55.459Z,101104.56
2023-03-14T21:20:50.204Z,101099.38
2023-03-14T21:25:55.417Z,101098.53
2023-03-14T21:30:46.658Z,101096.91
2023-03-14T21:35:39.511Z,101110.78
2023-03-14T21:40:35.652Z,101136.75
2023-03-14T21:45:26.078Z,101137.28
2023-03-14T21:50:18.338Z,101153.31
2023-03-14T21:55:10.897Z,101161.94
2023-03-14T22:00:08.719Z,101168.50
2023-03-14T22:05:03.674Z,101208.78
2023-03-14T22:09:58.908Z,101215.41
2023-03-14T22:14:50.399Z,101212.59
2023-03-14T22:19:47.417Z,101220.97
2023-03-14T22:24:46.345Z,101231.78
2023-03-14T22:29:52.391Z,101234.00
2023-03-14T22:35:02.260Z,101240.81
2023-03-14T22:39:57.331Z,101246.81
2023-03-14T22:44:48.370Z,101239.59
2023-03-14T22:49:50.590Z,101247.00
2023-03-14T22:54:58.518Z,101249.22
2023-03-14T22:59:50.066Z,101239.50
2023-03-14T23:04:49.503Z,101237.56
2023-03-14T23:09:48.163Z,101239.28
2023-03-14T23:14:50.667Z,101239.66
2023-03-14T23:19:45.875Z,101235.66
2023-03-14T23:24:36.469Z,101226.22
2023-03-14T23:29:34.084Z,101224.09
2023-03-14T23:34:27.799Z,101222.56
2023-03-14T23:39:22.463Z,101218.44
2023-03-14T23:44:16.417Z,101216.09
2023-03-14T23:49:10.805Z,101205.84
2023-03-14T23:54:10.309Z,101205.03
2023-03-14T23:59:04.616Z,101204.38
